Time;durP1;ratioP1;P1;durP2;ratioP2;P2;SDS_P1;SDS_P2;PMS_P1;PMS_P2;Temp;Humidity;BMP_temperature;BMP_pressure;BME280_temperature;BME280_humidity;BME280_pressure;Samples;Min_cycle;Max_cycle;Signal;HPM_P1;HPM_P2
2024/01/24 00:01:39;;;;;;;2.33;1.10;;;6.00;99.90;;;-141.84;100.00;119224.81;5092867;28;20686;-69
2024/01/24 00:04:08;;;;;;;3.13;1.03;;;6.00;99.90;;;-141.84;100.00;119224.81;5093175;28;20195;-70
2024/01/24 00:06:38;;;;;;;2.13;1.10;;;6.00;99.90;;;-141.84;100.00;119224.81;5092563;28;20235;-68
2024/01/24 00:09:08;;;;;;;3.50;0.97;;;6.00;99.90;;;-141.84;100.00;119224.81;5092978;28;20247;-69
2024/01/24 00:11:37;;;;;;;2.67;1.00;;;6.10;99.90;;;-141.84;100.00;119224.81;5092657;28;20234;-69
2024/01/24 00:14:09;;;;;;;1.63;1.10;;;6.10;99.90;;;-141.84;100.00;119224.81;5092828;28;20224;-70
2024/01/24 00:16:37;;;;;;;2.27;1.13;;;6.10;99.90;;;-141.84;100.00;119224.81;5092571;28;20227;-70
2024/01/24 00:19:06;;;;;;;1.63;1.00;;;6.10;99.90;;;-141.84;100.00;119224.81;5073316;28;20254;-69
2024/01/24 00:21:35;;;;;;;1.53;0.90;;;6.00;99.90;;;-141.84;100.00;119224.81;5092360;28;20220;-69
2024/01/24 00:24:03;;;;;;;2.47;0.93;;;6.10;99.90;;;-141.84;100.00;119224.81;5092237;28;20220;-71
2024/01/24 00:26:32;;;;;;;1.77;1.00;;;6.00;99.90;;;-141.84;100.00;119224.81;5084427;28;20285;-68
2024/01/24 00:29:01;;;;;;;4.00;0.80;;;6.10;99.90;;;-141.84;100.00;119224.81;5087090;28;20639;-69
2024/01/24 00:31:31;;;;;;;5.13;1.33;;;6.00;99.90;;;-141.84;100.00;119224.81;5092135;28;20191;-68
2024/01/24 00:34:00;;;;;;;1.00;0.80;;;6.10;99.90;;;-141.84;100.00;119224.81;5092311;28;20603;-68
2024/01/24 00:36:28;;;;;;;2.50;0.90;;;6.10;99.90;;;-141.84;100.00;119224.81;5057092;28;20228;-68
2024/01/24 00:38:57;;;;;;;1.93;0.90;;;6.10;99.90;;;-141.84;100.00;119224.81;5091733;28;20306;-68
2024/01/24 00:41:25;;;;;;;2.67;1.20;;;6.10;99.90;;;-141.84;100.00;119224.81;5092081;28;20223;-68
2024/01/24 00:43:53;;;;;;;2.87;1.00;;;6.20;99.90;;;-141.84;100.00;119224.81;5092073;28;20243;-69
2024/01/24 00:46:22;;;;;;;1.03;0.87;;;6.20;99.90;;;-141.84;100.00;119224.81;5091498;28;20207;-68
2024/01/24 00:48:51;;;;;;;2.90;1.00;;;6.20;99.90;;;-141.84;100.00;119224.81;5092204;28;20263;-68
2024/01/24 00:51:20;;;;;;;2.53;1.17;;;6.20;99.90;;;-141.84;100.00;119224.81;5091713;28;20231;-70
2024/01/24 00:53:52;;;;;;;1.63;0.80;;;6.30;99.90;;;-141.84;100.00;119224.81;5091549;28;20234;-69
2024/01/24 00:56:21;;;;;;;2.03;0.97;;;6.30;99.90;;;-141.84;100.00;119224.81;5091385;28;20220;-69
2024/01/24 00:58:50;;;;;;;2.03;0.73;;;6.30;99.90;;;-141.84;100.00;119224.81;5089940;28;20258;-70
2024/01/24 01:01:19;;;;;;;2.03;0.80;;;6.30;99.90;;;-141.84;100.00;119224.81;5091692;28;20298;-68
2024/01/24 01:03:47;;;;;;;0.90;0.80;;;6.30;99.90;;;-141.84;100.00;119224.81;5092169;28;20211;-69
2024/01/24 01:06:17;;;;;;;2.23;0.90;;;6.30;99.90;;;-141.84;100.00;119224.81;5090991;28;20232;-69
2024/01/24 01:08:46;;;;;;;2.97;1.00;;;6.30;99.90;;;-141.84;100.00;119224.81;5092060;28;20227;-69
2024/01/24 01:11:14;;;;;;;1.37;0.90;;;6.30;99.90;;;-141.84;100.00;119224.81;5091756;28;20645;-68
2024/01/24 01:13:42;;;;;;;1.43;0.90;;;6.30;99.90;;;-141.84;100.00;119224.81;5089807;28;20305;-69
2024/01/24 01:16:10;;;;;;;1.23;0.80;;;6.30;99.90;;;-141.84;100.00;119224.81;5086132;28;20246;-69
2024/01/24 01:18:43;;;;;;;1.10;0.90;;;6.30;99.90;;;-141.84;100.00;119224.81;5091255;28;20236;-68
2024/01/24 01:21:11;;;;;;;0.90;0.60;;;6.40;99.90;;;-141.84;100.00;119224.81;5087220;28;20747;-70
2024/01/24 01:23:41;;;;;;;0.87;0.77;;;6.40;99.90;;;-141.84;100.00;119224.81;5091104;28;20228;-69
2024/01/24 01:26:09;;;;;;;1.13;0.90;;;6.40;99.90;;;-141.84;100.00;119224.81;5092198;28;20247;-69
2024/01/24 01:28:37;;;;;;;2.17;0.90;;;6.40;99.90;;;-141.84;100.00;119224.81;5090863;28;20760;-69
2024/01/24 01:31:05;;;;;;;1.37;0.93;;;6.40;99.90;;;-141.84;100.00;119224.81;5092609;28;20224;-69
2024/01/24 01:33:34;;;;;;;2.27;0.90;;;6.40;99.90;;;-141.84;100.00;119224.81;5090543;28;20228;-69
2024/01/24 01:36:02;;;;;;;3.27;1.00;;;6.50;99.90;;;-141.84;100.00;119224.81;5091272;28;20216;-68
2024/01/24 01:38:33;;;;;;;1.43;1.00;;;6.50;99.90;;;-141.84;100.00;119224.81;5095106;28;20245;-68
2024/01/24 01:41:03;;;;;;;2.30;1.13;;;6.50;99.90;;;-141.84;100.00;119224.81;5090331;28;20832;-69
2024/01/24 01:43:31;;;;;;;1.57;0.80;;;6.50;99.90;;;-141.84;100.00;119224.81;5091759;28;20273;-68
2024/01/24 01:46:07;;;;;;;1.23;0.90;;;6.50;99.90;;;-141.84;100.00;119224.81;5092045;28;20238;-68
2024/01/24 01:48:36;;;;;;;1.33;0.97;;;6.50;99.90;;;-141.84;100.00;119224.81;5082651;28;20273;-69
2024/01/24 01:51:06;;;;;;;1.90;0.97;;;6.60;99.90;;;-141.84;100.00;119224.81;5090203;28;20649;-68
2024/01/24 01:53:38;;;;;;;1.07;0.87;;;6.60;99.90;;;-141.84;100.00;119224.81;5090596;28;20244;-68
2024/01/24 01:56:16;;;;;;;1.10;1.00;;;6.70;99.90;;;-141.84;100.00;119224.81;5068940;28;20277;-69
2024/01/24 01:58:45;;;;;;;2.10;0.80;;;6.70;99.90;;;-141.84;100.00;119224.81;5088591;28;20307;-69
2024/01/24 02:01:16;;;;;;;2.00;0.90;;;6.70;99.90;;;-141.84;100.00;119224.81;5091415;28;20291;-68
2024/01/24 02:03:45;;;;;;;1.50;1.00;;;7.00;99.90;;;-141.84;100.00;119224.81;5091116;28;20240;-69
2024/01/24 02:06:14;;;;;;;1.50;1.03;;;6.80;99.90;;;-141.84;100.00;119224.81;5090742;28;20232;-71
2024/01/24 02:08:44;;;;;;;2.60;0.97;;;6.80;99.90;;;-141.84;100.00;119224.81;5089097;28;20224;-67
2024/01/24 02:11:14;;;;;;;2.47;1.00;;;6.90;99.90;;;-141.84;100.00;119224.81;5090751;28;20307;-67
2024/01/24 02:13:42;;;;;;;2.63;1.20;;;7.00;99.90;;;-141.84;100.00;119224.81;5090417;28;20247;-68
2024/01/24 02:16:13;;;;;;;1.67;1.10;;;7.10;99.90;;;-141.84;100.00;119224.81;5090996;28;20253;-67
2024/01/24 02:18:47;;;;;;;1.03;0.90;;;7.10;99.90;;;-141.84;100.00;119224.81;5090043;28;20218;-67
2024/01/24 02:21:15;;;;;;;1.63;0.97;;;7.10;99.90;;;-141.84;100.00;119224.81;5089899;28;20232;-67
2024/01/24 02:23:44;;;;;;;1.87;1.10;;;7.20;99.90;;;-141.84;100.00;119224.81;5089035;28;20354;-68
2024/01/24 02:26:15;;;;;;;1.73;1.10;;;7.60;99.90;;;-141.84;100.00;119224.81;5090433;28;20655;-67
2024/01/24 02:28:43;;;;;;;2.13;1.20;;;7.40;99.90;;;-141.84;100.00;119224.81;5090053;28;20228;-67
2024/01/24 02:31:11;;;;;;;2.40;1.40;;;7.50;99.90;;;-141.84;100.00;119224.81;5090944;28;20192;-68
2024/01/24 02:33:40;;;;;;;2.50;1.30;;;7.50;99.90;;;-141.84;100.00;119224.81;5090637;28;20296;-67
2024/01/24 02:36:09;;;;;;;1.70;1.00;;;7.70;99.90;;;-141.84;100.00;118689.38;5090368;28;20223;-68
2024/01/24 02:38:37;;;;;;;2.40;1.20;;;7.80;99.90;;;-141.84;100.00;117889.44;5090051;28;20240;-69
2024/01/24 02:41:07;;;;;;;3.70;1.30;;;7.90;99.90;;;-141.84;100.00;117622.84;5090724;28;20235;-68
2024/01/24 02:43:36;;;;;;;3.23;1.40;;;8.00;99.90;;;-141.84;100.00;116023.56;5090589;28;20243;-69
2024/01/24 02:46:05;;;;;;;1.57;1.07;;;8.10;99.90;;;-141.84;100.00;114158.53;5090129;28;20206;-68
2024/01/24 02:48:33;;;;;;;3.90;1.30;;;8.20;99.90;;;-141.84;100.00;112826.88;5089609;28;20758;-68
2024/01/24 02:51:02;;;;;;;3.27;1.13;;;8.20;99.90;;;-141.84;100.00;113093.19;5089949;28;20721;-68
2024/01/24 02:53:30;;;;;;;2.40;1.00;;;8.20;99.90;;;-141.84;100.00;112294.34;5090996;28;20269;-70
2024/01/24 02:55:58;;;;;;;2.70;1.63;;;8.30;99.90;;;-141.84;100.00;112294.34;5090818;28;20224;-67
2024/01/24 02:58:26;;;;;;;2.27;1.30;;;8.30;99.90;;;-141.84;100.00;112294.34;5089977;28;20216;-67
2024/01/24 03:00:56;;;;;;;4.03;1.20;;;8.30;99.90;;;-141.84;99.09;110697.16;5091053;28;20291;-67
2024/01/24 03:03:24;;;;;;;3.30;1.40;;;8.30;99.90;;;-141.84;98.43;109898.81;5089392;28;20247;-68
2024/01/24 03:05:53;;;;;;;2.13;1.10;;;8.40;99.90;;;-141.84;98.13;108834.56;5089647;28;20614;-68
2024/01/24 03:08:21;;;;;;;1.50;1.20;;;8.40;99.90;;;-141.84;97.40;107770.63;5089806;28;20606;-68
2024/01/24 03:10:49;;;;;;;3.10;1.20;;;8.50;99.90;;;-141.84;97.55;107770.63;5089802;28;20257;-68
2024/01/24 03:13:18;;;;;;;2.00;1.00;;;8.50;99.90;;;-141.84;96.25;105643.53;5089471;28;20184;-67
2024/01/24 03:15:47;;;;;;;3.53;1.23;;;8.60;99.90;;;-141.84;97.37;107504.66;5089858;28;20204;-67
2024/01/24 03:18:17;;;;;;;3.30;1.20;;;8.60;99.90;;;-141.84;98.21;109366.66;5081554;28;20223;-67
2024/01/24 03:20:46;;;;;;;3.40;1.20;;;8.60;99.90;;;-141.84;97.03;107504.66;5086092;28;20294;-67
2024/01/24 03:23:16;;;;;;;2.33;1.20;;;8.70;99.90;;;-141.84;94.72;103517.56;5088235;28;20244;-68
2024/01/24 03:25:44;;;;;;;3.27;1.13;;;8.90;99.90;;;-141.84;94.94;103517.56;5085014;28;20298;-67
2024/01/24 03:28:13;;;;;;;2.57;1.20;;;8.90;99.90;;;-141.84;94.24;102189.38;5089275;28;20673;-68
2024/01/24 03:30:41;;;;;;;1.10;0.93;;;9.00;99.90;;;-141.84;94.07;101127.16;5089940;28;20239;-68
2024/01/24 03:33:09;;;;;;;1.73;1.00;;;9.00;99.90;;;-141.84;94.95;102720.59;5088429;28;20710;-69
2024/01/24 03:35:41;;;;;;;2.63;1.07;;;9.00;99.90;;;-141.84;93.10;99534.38;5090816;28;20223;-69
2024/01/24 03:38:09;;;;;;;1.43;1.03;;;9.00;99.90;;;-141.84;93.60;100330.69;5093597;28;20701;-69
2024/01/24 03:40:39;;;;;;;2.43;1.10;;;9.10;99.90;;;-141.84;93.19;100330.69;5094166;28;20224;-69
2024/01/24 03:43:08;;;;;;;2.60;1.10;;;9.20;99.90;;;-141.84;91.69;96085.44;5093383;28;20216;-68
2024/01/24 03:45:38;;;;;;;1.37;1.00;;;9.20;99.90;;;-141.84;92.45;96881.06;5093202;28;20648;-69
2024/01/24 03:48:08;;;;;;;3.47;1.43;;;9.30;99.90;;;-141.84;92.09;96881.06;5092834;28;20239;-69
2024/01/24 03:50:39;;;;;;;1.77;0.93;;;9.30;99.90;;;-141.84;92.47;97676.88;5093682;28;20298;-69
2024/01/24 03:53:08;;;;;;;2.10;1.17;;;9.20;99.90;;;-141.84;92.55;97676.88;5093236;28;20692;-68
2024/01/24 03:55:36;;;;;;;1.10;0.97;;;9.30;99.90;;;-141.84;91.23;94759.69;5093714;28;20238;-70
2024/01/24 03:58:06;;;;;;;2.27;1.20;;;9.40;99.90;;;-141.84;91.81;96615.84;5055064;28;20192;-69
2024/01/24 04:00:35;;;;;;;1.90;0.90;;;9.30;99.90;;;-141.84;91.33;95555.09;5093279;28;20227;-70
2024/01/24 04:03:04;;;;;;;1.50;1.10;;;9.40;99.90;;;-141.84;91.63;95555.09;5108276;28;20225;-70
2024/01/24 04:05:33;;;;;;;1.67;1.03;;;9.40;99.90;;;-141.84;90.88;94229.53;5113538;28;20235;-68
2024/01/24 04:08:02;;;;;;;2.80;1.10;;;9.50;99.90;;;-141.84;89.43;89725.88;5113212;28;20292;-69
2024/01/24 04:10:30;;;;;;;1.60;0.80;;;9.60;99.90;;;-141.84;89.98;91049.97;5105291;28;20227;-68
2024/01/24 04:12:59;;;;;;;1.20;0.80;;;9.50;99.90;;;-141.84;89.74;91049.97;5113566;28;20196;-69
2024/01/24 04:15:27;;;;;;;1.03;0.93;;;9.50;99.90;;;-141.84;88.00;85227.25;5112761;28;20219;-70
2024/01/24 04:17:56;;;;;;;1.03;0.90;;;9.70;99.90;;;-141.84;88.55;86814.44;5113040;28;20215;-70
2024/01/24 04:20:24;;;;;;;1.30;0.80;;;9.60;99.90;;;-141.84;88.31;86549.84;5114192;28;20215;-69
2024/01/24 04:22:54;;;;;;;2.60;1.10;;;9.60;99.90;;;-141.84;87.35;82054.78;5113208;28;20747;-69
2024/01/24 04:25:23;;;;;;;2.30;0.90;;;9.70;99.90;;;-141.84;88.95;87608.25;5113792;28;20714;-68
2024/01/24 04:27:52;;;;;;;1.90;0.90;;;9.60;99.90;;;-141.84;88.42;86549.84;5113818;28;20268;-70
2024/01/24 04:30:21;;;;;;;0.77;0.63;;;9.60;99.90;;;-141.84;87.93;84433.91;5113324;28;20219;-70
2024/01/24 04:32:49;;;;;;;1.80;0.63;;;9.60;99.90;;;-141.84;88.14;85491.75;5113555;28;20216;-69
2024/01/24 04:35:19;;;;;;;1.03;0.80;;;9.70;99.90;;;-141.84;87.57;84433.91;5112506;28;20302;-68
2024/01/24 04:37:47;;;;;;;2.00;0.90;;;9.70;99.90;;;-141.84;87.74;84698.34;5112724;28;20276;-68
2024/01/24 04:40:16;;;;;;;0.90;0.80;;;9.80;99.90;;;-141.84;86.91;80997.84;5113462;28;20646;-65
2024/01/24 04:42:46;;;;;;;1.23;0.90;;;9.80;99.90;;;-141.84;86.55;80205.34;5113671;28;20203;-69
2024/01/24 04:45:15;;;;;;;1.70;0.83;;;9.80;99.90;;;-141.84;87.92;84433.91;5094689;28;20223;-69
2024/01/24 04:47:45;;;;;;;1.63;0.80;;;9.90;99.90;;;-141.84;87.99;84169.50;5091307;28;20228;-69
2024/01/24 04:50:14;;;;;;;1.60;0.80;;;9.90;99.90;;;-141.84;87.67;84433.91;5092763;28;20224;-69
2024/01/24 04:52:43;;;;;;;2.20;0.73;;;9.90;99.90;;;-141.84;88.09;85491.75;5110100;28;20220;-68
2024/01/24 04:55:12;;;;;;;2.57;1.00;;;9.90;99.90;;;-141.84;87.46;83376.34;5092720;28;20645;-68
2024/01/24 04:57:41;;;;;;;1.37;0.90;;;10.00;99.90;;;-141.84;86.66;80733.66;5092828;28;20270;-68
2024/01/24 05:00:13;;;;;;;1.13;0.87;;;10.00;99.90;;;-141.84;86.21;79148.88;5092366;28;20223;-68
2024/01/24 05:02:41;;;;;;;1.10;0.83;;;9.90;99.90;;;-141.84;86.50;80205.34;5091494;28;20717;-68
2024/01/24 05:05:10;;;;;;;1.17;0.90;;;10.10;99.90;;;-141.84;86.79;81790.53;5091087;28;20805;-68
2024/01/24 05:07:38;;;;;;;1.07;0.70;;;10.00;99.90;;;-141.84;85.84;77828.72;5091496;28;20247;-68
2024/01/24 05:10:08;;;;;;;2.40;0.90;;;10.20;99.90;;;-141.84;86.18;79148.88;5091893;28;20654;-68
2024/01/24 05:12:37;;;;;;;1.43;0.70;;;10.20;99.90;;;-141.84;86.00;77828.72;5092769;28;20639;-69
2024/01/24 05:15:08;;;;;;;1.63;1.00;;;10.20;99.90;;;-141.84;85.25;75717.34;5092153;28;20717;-68
2024/01/24 05:17:40;;;;;;;2.03;0.87;;;10.20;99.90;;;-141.84;85.48;76245.09;5091073;28;20756;-68
2024/01/24 05:20:11;;;;;;;2.37;0.90;;;10.20;99.90;;;-141.84;87.19;83376.34;5091261;28;20220;-70
2024/01/24 05:22:39;;;;;;;2.07;0.80;;;10.10;99.90;;;-141.84;86.21;80469.50;5091660;28;20337;-69
2024/01/24 05:25:08;;;;;;;0.80;0.80;;;10.20;99.90;;;-141.84;86.21;79677.06;5091919;28;20220;-68
2024/01/24 05:27:36;;;;;;;2.47;1.13;;;10.10;99.90;;;-141.84;84.43;72288.75;5091945;28;20220;-69
2024/01/24 05:30:07;;;;;;;3.03;0.97;;;10.30;99.90;;;-141.84;86.46;79941.19;5090698;28;20227;-69
2024/01/24 05:32:57;;;;;;;1.27;0.97;;;10.10;99.90;;;-141.84;86.32;79412.97;5085532;28;20224;-69
2024/01/24 05:35:25;;;;;;;1.27;1.00;;;10.10;99.90;;;-141.84;85.68;77828.72;5089958;28;20220;-69
2024/01/24 05:37:53;;;;;;;1.00;0.80;;;10.20;99.90;;;-141.84;85.33;75717.34;5091496;28;20216;-69
2024/01/24 05:40:22;;;;;;;1.43;0.90;;;10.20;99.90;;;-141.84;86.54;79677.06;5093717;27;20261;-68
2024/01/24 05:42:50;;;;;;;2.13;1.03;;;10.20;99.90;;;-141.84;86.20;79677.06;5113606;27;20696;-69
2024/01/24 05:45:21;;;;;;;0.90;0.80;;;10.20;99.90;;;-141.84;85.63;76245.09;5080731;28;20221;-69
2024/01/24 05:47:49;;;;;;;1.83;1.00;;;10.20;99.90;;;-141.84;86.59;79941.19;5087712;28;20228;-70
2024/01/24 05:50:19;;;;;;;1.87;0.80;;;10.20;99.90;;;-141.84;86.80;82583.34;5090389;28;20735;-70
2024/01/24 05:52:47;;;;;;;2.27;1.10;;;10.20;99.90;;;-141.84;86.00;79148.88;5092424;28;20219;-70
2024/01/24 05:55:16;;;;;;;1.60;0.90;;;10.20;99.90;;;-141.84;86.41;80205.34;5090580;28;20668;-66
2024/01/24 05:57:46;;;;;;;1.77;0.87;;;10.20;99.90;;;-141.84;85.78;78356.72;5090389;28;20200;-70
2024/01/24 06:00:15;;;;;;;1.10;0.80;;;10.30;99.90;;;-141.84;84.35;72552.38;5090484;28;20228;-70
2024/01/24 06:02:45;;;;;;;2.00;1.00;;;10.40;99.90;;;-141.84;84.99;74398.31;5090460;28;20307;-70
2024/01/24 06:05:15;;;;;;;2.90;0.80;;;10.70;99.90;;;-141.84;86.94;82319.06;5089964;28;20228;-69
2024/01/24 06:07:46;;;;;;;1.93;0.73;;;10.50;99.90;;;-141.84;88.42;88666.94;5091856;28;20272;-59
2024/01/24 06:10:15;;;;;;;1.13;1.03;;;10.50;99.90;;;-141.84;88.73;89196.38;5090577;28;20228;-58
2024/01/24 06:12:43;;;;;;;1.97;1.00;;;10.50;99.90;;;-141.84;88.01;87343.63;5090602;28;20220;-58
2024/01/24 06:15:12;;;;;;;1.10;0.80;;;10.60;99.90;;;-141.84;87.33;84962.78;5090229;28;20219;-57
2024/01/24 06:17:41;;;;;;;1.20;0.70;;;10.70;99.90;;;-141.84;86.13;81262.06;5090816;28;20254;-57
2024/01/24 06:20:12;;;;;;;0.97;0.70;;;10.70;99.90;;;-141.84;86.00;79941.19;5089929;28;20220;-59
2024/01/24 06:22:41;;;;;;;1.00;0.80;;;10.80;99.90;;;-141.84;85.98;80733.66;5091279;28;20299;-70
2024/01/24 06:25:11;;;;;;;0.83;0.70;;;;;;;-141.84;84.76;75981.22;5081152;28;20314;-70
2024/01/24 06:27:42;;;;;;;1.20;0.60;;;;;;;-141.84;84.09;73079.69;5086443;28;20227;-70
2024/01/24 06:30:17;;;;;;;0.57;0.50;;;;;;;-141.84;84.09;72816.03;5090199;28;20224;-70
2024/01/24 06:32:51;;;;;;;0.77;0.67;;;11.00;99.90;;;-141.84;82.56;65440.38;5090208;28;20223;-70
2024/01/24 06:35:21;;;;;;;1.10;0.90;;;11.20;99.90;;;-141.84;82.84;67283.00;5090042;28;20249;-70
2024/01/24 06:37:51;;;;;;;1.60;1.10;;;11.20;99.90;;;-141.84;83.29;69126.50;5090397;28;20273;-70
2024/01/24 06:40:21;;;;;;;0.57;0.57;;;11.10;99.90;;;-141.84;83.30;68599.69;5086178;28;20271;-68
2024/01/24 06:42:50;;;;;;;0.70;0.63;;;11.20;99.90;;;-141.84;83.42;70180.31;5091259;28;20199;-70
2024/01/24 06:45:19;;;;;;;0.87;0.60;;;11.20;99.90;;;-141.84;84.24;74398.31;5090352;28;20606;-69
2024/01/24 06:47:48;;;;;;;0.77;0.40;;;11.20;99.90;;;-141.84;83.79;72288.75;5090533;28;20224;-69
2024/01/24 06:50:17;;;;;;;0.50;0.50;;;11.30;99.90;;;-141.84;84.19;74398.31;5085498;28;20222;-70
2024/01/24 06:52:48;;;;;;;0.60;0.50;;;11.40;99.90;;;-141.84;83.39;71497.94;5051774;28;20290;-70
2024/01/24 06:55:17;;;;;;;1.33;0.40;;;11.50;99.90;;;-141.84;83.01;68863.09;5091004;28;20192;-68
2024/01/24 06:57:47;;;;;;;0.40;0.40;;;11.60;99.90;;;-141.84;82.88;69126.50;5085122;28;20302;-70
2024/01/24 07:00:18;;;;;;;0.93;0.50;;;11.60;99.90;;;-141.84;82.64;67019.72;5090588;28;20235;-70
2024/01/24 07:02:48;;;;;;;0.37;0.37;;;11.60;99.90;;;-141.84;83.29;70180.31;5089661;28;20334;-69
2024/01/24 07:05:17;;;;;;;0.33;0.33;;;11.60;99.90;;;-141.84;83.79;72288.75;5091895;28;20246;-69
2024/01/24 07:07:45;;;;;;;0.50;0.50;;;11.70;99.90;;;-141.84;84.47;75981.22;5085778;28;20259;-70
2024/01/24 07:10:13;;;;;;;1.63;0.50;;;11.60;99.90;;;-141.84;84.84;77564.72;5087804;28;20243;-71
2024/01/24 07:12:45;;;;;;;2.20;1.37;;;11.60;99.90;;;-141.84;85.52;79941.19;5112778;28;20239;-70
2024/01/24 07:15:17;;;;;;;1.60;0.63;;;11.60;99.90;;;-141.84;85.63;80733.66;5113520;28;20216;-70
2024/01/24 07:17:46;;;;;;;0.60;0.60;;;11.60;99.90;;;-141.84;84.11;74925.88;5052307;28;20226;-70
2024/01/24 07:20:18;;;;;;;0.60;0.60;;;11.70;99.90;;;-141.84;83.37;71761.53;5113836;28;20298;-72
2024/01/24 07:22:46;;;;;;;0.50;0.50;;;11.70;99.90;;;-141.84;83.03;70180.31;5113490;28;20229;-70
2024/01/24 07:25:14;;;;;;;0.93;0.87;;;11.80;99.90;;;-141.84;83.37;71234.38;5113915;28;20226;-71
2024/01/24 07:27:44;;;;;;;0.60;0.60;;;11.70;99.90;;;-141.84;82.78;68863.09;5092730;28;20244;-70
2024/01/24 07:30:15;;;;;;;1.10;0.80;;;11.80;99.90;;;-141.84;82.85;69389.94;5100737;28;20220;-70
2024/01/24 07:32:45;;;;;;;0.70;0.70;;;11.80;99.90;;;-141.84;82.66;67809.63;5105031;28;20223;-69
2024/01/24 07:35:13;;;;;;;0.40;0.40;;;;;;;-141.84;82.61;67809.63;5104759;28;20253;-71
2024/01/24 07:37:44;;;;;;;0.63;0.60;;;;;;;-141.84;82.64;68072.97;5085962;28;20231;-71
2024/01/24 07:40:15;;;;;;;0.40;0.40;;;;;;;-141.84;82.81;68336.31;5087233;28;20189;-70
2024/01/24 07:42:43;;;;;;;0.73;0.50;;;11.70;99.90;;;-141.84;83.14;69916.81;5094146;28;20971;-71
2024/01/24 07:45:13;;;;;;;0.40;0.40;;;;;;;-141.84;82.58;67019.72;5094923;28;20228;-70
2024/01/24 07:47:42;;;;;;;1.70;0.50;;;11.70;99.90;;;-141.84;82.07;64914.06;5092673;28;20761;-70
2024/01/24 07:50:13;;;;;;;0.47;0.40;;;;;;;-141.84;82.42;66756.44;5092905;28;20736;-70
2024/01/24 07:52:42;;;;;;;0.53;0.50;;;;;;;-141.84;82.14;64387.81;5093225;28;20717;-70
2024/01/24 07:55:12;;;;;;;1.03;0.60;;;;;;;-141.84;82.32;65966.75;5089387;28;20546;-71
2024/01/24 07:57:42;;;;;;;1.07;0.50;;;11.60;99.90;;;-141.84;80.79;56765.13;5086565;28;20220;-70
2024/01/24 08:00:16;;;;;;;0.80;0.50;;;11.80;99.90;;;-141.84;81.88;62283.53;5087389;28;20216;-70
2024/01/24 08:02:46;;;;;;;0.60;0.60;;;11.70;99.90;;;-141.84;82.52;66493.19;5090203;28;20227;-70
2024/01/24 08:05:22;;;;;;;0.70;0.50;;;11.70;99.90;;;-141.84;82.13;64387.81;5088161;28;20240;-69
2024/01/24 08:07:50;;;;;;;0.50;0.50;;;11.80;99.90;;;-141.84;81.96;64124.72;5104338;28;20624;-69
2024/01/24 08:10:18;;;;;;;0.30;0.30;;;11.80;99.90;;;-141.84;81.71;63072.50;5104030;28;20239;-68
2024/01/24 08:12:49;;;;;;;0.83;0.63;;;11.90;99.90;;;-141.84;81.51;61757.66;5113099;28;20188;-71
2024/01/24 08:15:18;;;;;;;0.40;0.40;;;11.90;99.90;;;-141.84;81.63;63072.50;5112587;28;20571;-70
2024/01/24 08:17:47;;;;;;;0.50;0.50;;;11.90;99.90;;;-141.84;82.02;64650.94;5112583;28;20226;-70
2024/01/24 08:20:19;;;;;;;1.33;0.60;;;11.90;99.90;;;-141.84;80.97;58866.47;5108059;28;20276;-73
2024/01/24 08:22:49;;;;;;;0.47;0.47;;;11.90;99.90;;;-141.84;82.12;65177.19;5108987;27;20223;-73
2024/01/24 08:25:17;;;;;;;0.50;0.50;;;11.80;99.90;;;-141.84;82.37;66493.19;5108964;28;20252;-73
2024/01/24 08:27:47;;;;;;;1.33;0.70;;;11.80;99.90;;;-141.84;81.93;63861.66;5113322;28;20195;-67
2024/01/24 08:30:15;;;;;;;2.60;0.70;;;11.70;99.90;;;-141.84;83.42;70443.78;5110218;28;20704;-73
2024/01/24 08:32:44;;;;;;;0.80;0.53;;;11.60;99.90;;;-141.84;82.36;64650.94;5112354;28;20223;-72
2024/01/24 08:35:12;;;;;;;0.50;0.50;;;11.60;99.90;;;-141.84;81.21;58866.47;5112947;28;20227;-71
2024/01/24 08:37:41;;;;;;;2.53;2.33;;;11.60;99.90;;;-141.84;81.94;63598.59;5104881;28;20303;-68
2024/01/24 08:40:12;;;;;;;0.80;0.80;;;;;;;-141.84;82.83;68336.31;5112616;28;20203;-66
2024/01/24 08:42:41;;;;;;;1.10;0.80;;;11.70;99.90;;;-141.84;83.46;71761.53;5110949;28;20711;-69
2024/01/24 08:45:10;;;;;;;0.60;0.60;;;11.80;99.90;;;-141.84;83.54;72288.75;5111024;27;20216;-69
2024/01/24 08:47:39;;;;;;;0.90;0.90;;;11.80;99.90;;;-141.84;83.18;70970.84;5104835;27;20227;-58
2024/01/24 08:50:09;;;;;;;1.10;1.00;;;11.80;99.90;;;-141.84;80.16;54140.00;5111981;28;20256;-50
2024/01/24 08:52:41;;;;;;;1.00;0.80;;;12.00;99.90;;;-141.84;77.71;35333.25;5111923;28;20219;-54
2024/01/24 08:55:13;;;;;;;1.10;0.80;;;12.10;99.90;;;-141.84;77.74;36506.69;5112357;28;20222;-49
2024/01/24 08:57:42;;;;;;;0.60;0.60;;;12.20;99.90;;;-141.84;75.98;26864.38;5112055;28;20311;-53
2024/01/24 09:00:12;;;;;;;2.58;0.93;;;12.30;99.90;;;-141.84;75.23;23925.44;5112069;28;20231;-52
2024/01/24 09:02:40;;;;;;;0.60;0.60;;;12.40;99.90;;;-141.84;75.34;24137.03;5111644;28;20210;-54
2024/01/24 09:05:09;;;;;;;0.82;0.50;;;12.40;99.90;;;-141.84;74.55;22381.56;5111913;28;20677;-56
2024/01/24 09:07:39;;;;;;;1.50;0.60;;;12.40;99.90;;;-141.84;73.24;20346.34;5110862;28;20290;-52
2024/01/24 09:10:10;;;;;;;0.90;0.70;;;12.40;99.90;;;-141.84;72.54;19980.50;5111380;28;20770;-51
2024/01/24 09:12:39;;;;;;;0.80;0.80;;;12.40;99.90;;;-141.84;70.60;19269.22;5111313;28;20708;-51
2024/01/24 09:15:09;;;;;;;1.08;0.80;;;12.40;99.90;;;-141.84;70.38;19289.53;5111822;28;20219;-51
2024/01/24 09:17:39;;;;;;;1.10;0.90;;;12.30;99.90;;;-141.84;67.80;18944.09;5103541;28;20184;-53
2024/01/24 09:20:09;;;;;;;2.47;0.70;;;12.40;99.90;;;-141.84;66.21;18899.38;5112340;28;20195;-54
2024/01/24 09:22:39;;;;;;;2.35;0.90;;;12.40;99.90;;;-141.84;64.60;18791.69;5110788;28;20219;-51
2024/01/24 09:25:10;;;;;;;1.25;0.90;;;12.50;99.90;;;-141.84;67.04;18952.22;5111116;28;20267;-50
2024/01/24 09:27:41;;;;;;;3.35;1.10;;;12.50;99.90;;;-141.84;69.82;19135.09;5111781;28;20227;-54
2024/01/24 09:30:11;;;;;;;3.33;1.00;;;12.30;99.90;;;-141.84;74.30;20740.69;5110811;28;20310;-56
2024/01/24 09:32:39;;;;;;;4.10;1.85;;;12.00;99.90;;;-141.84;77.33;28752.22;5111115;28;20253;-54
2024/01/24 09:35:09;;;;;;;3.90;1.10;;;11.80;99.90;;;-141.84;78.96;38158.25;5110478;28;20252;-51
2024/01/24 09:37:37;;;;;;;4.10;1.80;;;11.50;99.90;;;-141.84;78.51;35119.00;5102815;28;20208;-52
2024/01/24 09:40:07;;;;;;;4.67;1.37;;;11.30;99.90;;;-141.84;73.64;20265.03;5111185;28;20219;-52
2024/01/24 09:42:43;;;;;;;3.57;1.40;;;11.10;99.90;;;-141.84;73.38;19891.06;5110385;28;20219;-55
2024/01/24 09:45:12;;;;;;;5.33;1.70;;;11.10;99.90;;;-141.84;69.72;18913.59;5110951;28;20218;-57
2024/01/24 09:47:42;;;;;;;4.33;1.67;;;11.00;99.90;;;-141.84;68.90;18881.09;5111137;28;20223;-55
2024/01/24 09:50:12;;;;;;;5.30;1.80;;;11.10;99.90;;;-141.84;67.76;18791.69;5111692;28;20227;-51
2024/01/24 09:52:42;;;;;;;4.73;2.07;;;11.10;99.90;;;-141.84;66.23;18769.34;5110951;28;20265;-55
2024/01/24 09:55:18;;;;;;;6.07;1.70;;;11.20;99.90;;;-141.84;64.42;18761.22;5111168;28;20212;-55
2024/01/24 09:57:49;;;;;;;4.63;2.03;;;11.30;99.90;;;-141.84;63.94;18728.72;5111218;28;20643;-53
2024/01/24 10:00:17;;;;;;;8.97;2.20;;;11.40;99.90;;;-141.84;64.33;18765.28;5106299;28;20219;-55
2024/01/24 10:02:47;;;;;;;9.30;2.50;;;11.50;99.90;;;-141.84;64.13;18759.19;5110717;28;20203;-53
2024/01/24 10:05:18;;;;;;;5.47;2.03;;;11.50;99.90;;;-141.84;63.39;18761.22;5112078;28;20223;-55
2024/01/24 10:07:47;;;;;;;7.00;2.30;;;11.60;99.90;;;-141.84;63.48;18736.84;5111056;28;20268;-56
2024/01/24 10:10:16;;;;;;;4.40;1.70;;;11.60;99.90;;;-141.84;63.75;18712.47;5111261;28;20302;-55
2024/01/24 10:12:45;;;;;;;7.47;2.13;;;11.50;99.90;;;-141.84;64.32;18763.25;5111361;28;20355;-57
2024/01/24 10:15:14;;;;;;;7.47;2.40;;;11.50;99.90;;;-141.84;62.41;18742.94;5111199;28;20230;-56
2024/01/24 10:17:46;;;;;;;7.40;2.40;;;11.60;99.90;;;-141.84;60.28;18761.22;5111072;28;20291;-58